sensor_id;sensor_type;location;lat;lon;timestamp;P1;durP1;ratioP1;P2;durP2;ratioP2
78858;SDS011;68210;52.032;4.634;2024-02-16T00:00:49;4.68;;;2.53;;
78858;SDS011;68210;52.032;4.634;2024-02-16T00:02:49;4.45;;;2.63;;
78858;SDS011;68210;52.032;4.634;2024-02-16T00:04:50;4.82;;;2.50;;
78858;SDS011;68210;52.032;4.634;2024-02-16T00:06:50;4.68;;;2.50;;
78858;SDS011;68210;52.032;4.634;2024-02-16T00:08:50;7.05;;;2.78;;
78858;SDS011;68210;52.032;4.634;2024-02-16T00:10:51;6.97;;;2.60;;
78858;SDS011;68210;52.032;4.634;2024-02-16T00:12:51;3.97;;;2.67;;
78858;SDS011;68210;52.032;4.634;2024-02-16T00:14:51;6.63;;;2.75;;
78858;SDS011;68210;52.032;4.634;2024-02-16T00:16:52;4.35;;;2.42;;
78858;SDS011;68210;52.032;4.634;2024-02-16T00:18:52;4.57;;;2.67;;
78858;SDS011;68210;52.032;4.634;2024-02-16T00:20:53;4.40;;;2.47;;
78858;SDS011;68210;52.032;4.634;2024-02-16T00:22:53;5.97;;;2.25;;
78858;SDS011;68210;52.032;4.634;2024-02-16T00:24:53;5.43;;;2.35;;
78858;SDS011;68210;52.032;4.634;2024-02-16T00:26:54;4.63;;;2.55;;
78858;SDS011;68210;52.032;4.634;2024-02-16T00:28:54;5.15;;;2.50;;
78858;SDS011;68210;52.032;4.634;2024-02-16T00:30:54;5.57;;;2.67;;
78858;SDS011;68210;52.032;4.634;2024-02-16T00:32:55;5.57;;;2.50;;
78858;SDS011;68210;52.032;4.634;2024-02-16T00:34:55;6.55;;;2.70;;
78858;SDS011;68210;52.032;4.634;2024-02-16T00:36:57;4.43;;;2.30;;
78858;SDS011;68210;52.032;4.634;2024-02-16T00:38:57;4.78;;;2.58;;
78858;SDS011;68210;52.032;4.634;2024-02-16T00:40:58;6.30;;;2.72;;
78858;SDS011;68210;52.032;4.634;2024-02-16T00:42:58;5.57;;;2.75;;
78858;SDS011;68210;52.032;4.634;2024-02-16T00:44:59;5.65;;;2.67;;
78858;SDS011;68210;52.032;4.634;2024-02-16T00:47:02;5.47;;;2.47;;
78858;SDS011;68210;52.032;4.634;2024-02-16T00:49:15;3.70;;;2.58;;
78858;SDS011;68210;52.032;4.634;2024-02-16T00:51:16;7.43;;;3.28;;
78858;SDS011;68210;52.032;4.634;2024-02-16T00:53:17;3.53;;;2.30;;
78858;SDS011;68210;52.032;4.634;2024-02-16T00:55:19;4.40;;;2.88;;
78858;SDS011;68210;52.032;4.634;2024-02-16T00:57:20;3.33;;;2.40;;
78858;SDS011;68210;52.032;4.634;2024-02-16T00:59:20;4.57;;;2.55;;
78858;SDS011;68210;52.032;4.634;2024-02-16T01:01:21;4.55;;;2.55;;
78858;SDS011;68210;52.032;4.634;2024-02-16T01:03:22;3.67;;;2.42;;
78858;SDS011;68210;52.032;4.634;2024-02-16T01:05:23;5.28;;;2.78;;
78858;SDS011;68210;52.032;4.634;2024-02-16T01:07:25;5.35;;;3.00;;
78858;SDS011;68210;52.032;4.634;2024-02-16T01:09:25;6.18;;;3.22;;
78858;SDS011;68210;52.032;4.634;2024-02-16T01:11:26;4.53;;;2.42;;
78858;SDS011;68210;52.032;4.634;2024-02-16T01:13:27;6.25;;;3.00;;
78858;SDS011;68210;52.032;4.634;2024-02-16T01:15:28;6.05;;;2.70;;
78858;SDS011;68210;52.032;4.634;2024-02-16T01:17:28;7.10;;;2.92;;
78858;SDS011;68210;52.032;4.634;2024-02-16T01:19:29;4.95;;;2.95;;
78858;SDS011;68210;52.032;4.634;2024-02-16T01:21:30;4.97;;;2.97;;
78858;SDS011;68210;52.032;4.634;2024-02-16T01:23:30;6.43;;;3.03;;
78858;SDS011;68210;52.032;4.634;2024-02-16T01:25:31;6.30;;;3.13;;
78858;SDS011;68210;52.032;4.634;2024-02-16T01:27:32;7.07;;;2.92;;
78858;SDS011;68210;52.032;4.634;2024-02-16T01:29:32;6.05;;;2.70;;
78858;SDS011;68210;52.032;4.634;2024-02-16T01:31:32;5.13;;;2.63;;
78858;SDS011;68210;52.032;4.634;2024-02-16T01:33:33;5.78;;;2.40;;
78858;SDS011;68210;52.032;4.634;2024-02-16T01:35:34;5.07;;;2.72;;
78858;SDS011;68210;52.032;4.634;2024-02-16T01:37:35;4.63;;;2.35;;
78858;SDS011;68210;52.032;4.634;2024-02-16T01:39:35;5.05;;;2.47;;
78858;SDS011;68210;52.032;4.634;2024-02-16T01:41:38;5.22;;;2.60;;
78858;SDS011;68210;52.032;4.634;2024-02-16T01:43:39;5.80;;;2.42;;
78858;SDS011;68210;52.032;4.634;2024-02-16T01:45:40;6.07;;;2.78;;
78858;SDS011;68210;52.032;4.634;2024-02-16T01:47:41;4.90;;;2.72;;
78858;SDS011;68210;52.032;4.634;2024-02-16T01:49:43;4.63;;;2.38;;
78858;SDS011;68210;52.032;4.634;2024-02-16T01:51:44;4.82;;;2.50;;
78858;SDS011;68210;52.032;4.634;2024-02-16T01:53:45;5.40;;;2.90;;
78858;SDS011;68210;52.032;4.634;2024-02-16T01:55:46;4.80;;;2.40;;
78858;SDS011;68210;52.032;4.634;2024-02-16T01:57:47;5.15;;;2.60;;
78858;SDS011;68210;52.032;4.634;2024-02-16T01:59:48;5.05;;;2.40;;
78858;SDS011;68210;52.032;4.634;2024-02-16T02:01:49;7.68;;;2.60;;
78858;SDS011;68210;52.032;4.634;2024-02-16T02:03:49;5.15;;;2.55;;
78858;SDS011;68210;52.032;4.634;2024-02-16T02:05:49;6.07;;;2.85;;
78858;SDS011;68210;52.032;4.634;2024-02-16T02:07:51;5.55;;;2.88;;
78858;SDS011;68210;52.032;4.634;2024-02-16T02:09:53;4.82;;;2.88;;
78858;SDS011;68210;52.032;4.634;2024-02-16T02:11:53;3.95;;;2.92;;
78858;SDS011;68210;52.032;4.634;2024-02-16T02:13:54;4.85;;;2.50;;
78858;SDS011;68210;52.032;4.634;2024-02-16T02:15:54;4.45;;;2.72;;
78858;SDS011;68210;52.032;4.634;2024-02-16T02:17:55;6.88;;;2.50;;
78858;SDS011;68210;52.032;4.634;2024-02-16T02:19:55;4.60;;;2.40;;
78858;SDS011;68210;52.032;4.634;2024-02-16T02:21:56;6.50;;;2.58;;
78858;SDS011;68210;52.032;4.634;2024-02-16T02:23:56;7.43;;;3.00;;
78858;SDS011;68210;52.032;4.634;2024-02-16T02:25:57;6.72;;;2.67;;
78858;SDS011;68210;52.032;4.634;2024-02-16T02:27:57;4.88;;;2.85;;
78858;SDS011;68210;52.032;4.634;2024-02-16T02:29:58;4.70;;;2.75;;
78858;SDS011;68210;52.032;4.634;2024-02-16T02:31:58;5.28;;;2.75;;
78858;SDS011;68210;52.032;4.634;2024-02-16T02:33:59;6.70;;;2.90;;
78858;SDS011;68210;52.032;4.634;2024-02-16T02:35:59;3.83;;;2.55;;
78858;SDS011;68210;52.032;4.634;2024-02-16T02:37:59;6.10;;;2.55;;
78858;SDS011;68210;52.032;4.634;2024-02-16T02:40:00;7.13;;;3.13;;
78858;SDS011;68210;52.032;4.634;2024-02-16T02:42:00;5.07;;;2.88;;
78858;SDS011;68210;52.032;4.634;2024-02-16T02:44:01;3.65;;;2.60;;
78858;SDS011;68210;52.032;4.634;2024-02-16T02:46:01;4.07;;;2.38;;
78858;SDS011;68210;52.032;4.634;2024-02-16T02:48:01;6.32;;;3.00;;
78858;SDS011;68210;52.032;4.634;2024-02-16T02:50:02;4.53;;;2.55;;
78858;SDS011;68210;52.032;4.634;2024-02-16T02:52:04;4.10;;;2.42;;
78858;SDS011;68210;52.032;4.634;2024-02-16T02:54:06;4.88;;;2.40;;
78858;SDS011;68210;52.032;4.634;2024-02-16T02:56:07;4.25;;;2.70;;
78858;SDS011;68210;52.032;4.634;2024-02-16T02:58:07;5.13;;;2.60;;
78858;SDS011;68210;52.032;4.634;2024-02-16T03:00:08;3.20;;;2.33;;
78858;SDS011;68210;52.032;4.634;2024-02-16T03:02:11;3.80;;;2.33;;
78858;SDS011;68210;52.032;4.634;2024-02-16T03:04:12;4.43;;;2.60;;
78858;SDS011;68210;52.032;4.634;2024-02-16T03:06:12;9.45;;;3.20;;
78858;SDS011;68210;52.032;4.634;2024-02-16T03:08:13;3.95;;;2.30;;
78858;SDS011;68210;52.032;4.634;2024-02-16T03:10:14;4.22;;;2.20;;
78858;SDS011;68210;52.032;4.634;2024-02-16T03:12:20;4.00;;;2.72;;
78858;SDS011;68210;52.032;4.634;2024-02-16T03:14:20;7.65;;;2.58;;
78858;SDS011;68210;52.032;4.634;2024-02-16T03:16:21;4.07;;;2.35;;
78858;SDS011;68210;52.032;4.634;2024-02-16T03:18:22;4.80;;;3.30;;
78858;SDS011;68210;52.032;4.634;2024-02-16T03:20:22;4.80;;;2.63;;
78858;SDS011;68210;52.032;4.634;2024-02-16T03:22:23;3.88;;;2.33;;
78858;SDS011;68210;52.032;4.634;2024-02-16T03:24:23;4.53;;;2.67;;
78858;SDS011;68210;52.032;4.634;2024-02-16T03:26:23;5.00;;;3.05;;
78858;SDS011;68210;52.032;4.634;2024-02-16T03:28:24;3.63;;;2.40;;
78858;SDS011;68210;52.032;4.634;2024-02-16T03:30:24;4.30;;;2.63;;
78858;SDS011;68210;52.032;4.634;2024-02-16T03:32:25;5.93;;;3.22;;
78858;SDS011;68210;52.032;4.634;2024-02-16T03:34:25;6.38;;;2.60;;
78858;SDS011;68210;52.032;4.634;2024-02-16T03:36:26;3.72;;;2.65;;
78858;SDS011;68210;52.032;4.634;2024-02-16T03:38:26;5.85;;;2.70;;
78858;SDS011;68210;52.032;4.634;2024-02-16T03:40:27;5.50;;;2.55;;
78858;SDS011;68210;52.032;4.634;2024-02-16T03:42:28;4.30;;;2.42;;
78858;SDS011;68210;52.032;4.634;2024-02-16T03:44:28;4.32;;;2.60;;
78858;SDS011;68210;52.032;4.634;2024-02-16T03:46:29;5.57;;;2.92;;
78858;SDS011;68210;52.032;4.634;2024-02-16T03:48:30;4.43;;;2.45;;
78858;SDS011;68210;52.032;4.634;2024-02-16T03:50:30;5.22;;;2.55;;
78858;SDS011;68210;52.032;4.634;2024-02-16T03:52:30;3.95;;;2.33;;
78858;SDS011;68210;52.032;4.634;2024-02-16T03:54:31;7.05;;;3.08;;
78858;SDS011;68210;52.032;4.634;2024-02-16T03:56:32;3.65;;;2.00;;
78858;SDS011;68210;52.032;4.634;2024-02-16T03:58:32;5.60;;;3.08;;
78858;SDS011;68210;52.032;4.634;2024-02-16T04:00:32;4.65;;;2.35;;
78858;SDS011;68210;52.032;4.634;2024-02-16T04:02:33;5.50;;;2.38;;
78858;SDS011;68210;52.032;4.634;2024-02-16T04:04:34;6.18;;;2.50;;
78858;SDS011;68210;52.032;4.634;2024-02-16T04:06:34;5.13;;;2.60;;
78858;SDS011;68210;52.032;4.634;2024-02-16T04:08:34;5.18;;;3.63;;
78858;SDS011;68210;52.032;4.634;2024-02-16T04:10:35;5.43;;;2.67;;
78858;SDS011;68210;52.032;4.634;2024-02-16T04:12:35;5.18;;;2.85;;
78858;SDS011;68210;52.032;4.634;2024-02-16T04:14:36;5.10;;;2.50;;
78858;SDS011;68210;52.032;4.634;2024-02-16T04:16:37;5.40;;;2.72;;
78858;SDS011;68210;52.032;4.634;2024-02-16T04:18:37;7.03;;;2.67;;
78858;SDS011;68210;52.032;4.634;2024-02-16T04:20:37;7.25;;;2.70;;
78858;SDS011;68210;52.032;4.634;2024-02-16T04:22:38;4.55;;;2.80;;
78858;SDS011;68210;52.032;4.634;2024-02-16T04:24:38;3.70;;;2.67;;
78858;SDS011;68210;52.032;4.634;2024-02-16T04:26:39;5.03;;;2.50;;
78858;SDS011;68210;52.032;4.634;2024-02-16T04:28:39;3.97;;;2.55;;
78858;SDS011;68210;52.032;4.634;2024-02-16T04:30:40;4.68;;;2.42;;
78858;SDS011;68210;52.032;4.634;2024-02-16T04:32:40;4.65;;;2.38;;
78858;SDS011;68210;52.032;4.634;2024-02-16T04:34:40;7.38;;;2.92;;
78858;SDS011;68210;52.032;4.634;2024-02-16T04:36:41;4.82;;;2.45;;
78858;SDS011;68210;52.032;4.634;2024-02-16T04:38:41;4.25;;;2.38;;
78858;SDS011;68210;52.032;4.634;2024-02-16T04:40:41;4.78;;;2.60;;
78858;SDS011;68210;52.032;4.634;2024-02-16T04:42:42;4.75;;;2.72;;
78858;SDS011;68210;52.032;4.634;2024-02-16T04:44:42;4.53;;;2.95;;
78858;SDS011;68210;52.032;4.634;2024-02-16T04:46:43;3.75;;;2.78;;
78858;SDS011;68210;52.032;4.634;2024-02-16T04:48:43;6.00;;;2.60;;
78858;SDS011;68210;52.032;4.634;2024-02-16T04:50:44;5.03;;;2.65;;
78858;SDS011;68210;52.032;4.634;2024-02-16T04:52:45;8.70;;;2.65;;
78858;SDS011;68210;52.032;4.634;2024-02-16T04:54:45;5.13;;;3.03;;
78858;SDS011;68210;52.032;4.634;2024-02-16T04:56:46;6.10;;;2.67;;
78858;SDS011;68210;52.032;4.634;2024-02-16T04:58:46;4.22;;;2.72;;
78858;SDS011;68210;52.032;4.634;2024-02-16T05:00:47;6.60;;;2.90;;
78858;SDS011;68210;52.032;4.634;2024-02-16T05:02:48;4.47;;;2.92;;
78858;SDS011;68210;52.032;4.634;2024-02-16T05:04:48;5.55;;;2.63;;
78858;SDS011;68210;52.032;4.634;2024-02-16T05:06:49;4.35;;;2.50;;
78858;SDS011;68210;52.032;4.634;2024-02-16T05:08:51;4.82;;;2.70;;
78858;SDS011;68210;52.032;4.634;2024-02-16T05:10:52;6.20;;;2.72;;
78858;SDS011;68210;52.032;4.634;2024-02-16T05:12:52;5.97;;;2.60;;
78858;SDS011;68210;52.032;4.634;2024-02-16T05:14:52;6.82;;;2.75;;
78858;SDS011;68210;52.032;4.634;2024-02-16T05:16:53;4.32;;;2.50;;
78858;SDS011;68210;52.032;4.634;2024-02-16T05:18:54;4.93;;;2.63;;
78858;SDS011;68210;52.032;4.634;2024-02-16T05:20:56;4.93;;;3.20;;
78858;SDS011;68210;52.032;4.634;2024-02-16T05:22:58;4.78;;;2.63;;
78858;SDS011;68210;52.032;4.634;2024-02-16T05:24:58;4.85;;;2.80;;
78858;SDS011;68210;52.032;4.634;2024-02-16T05:26:58;4.80;;;2.58;;
78858;SDS011;68210;52.032;4.634;2024-02-16T05:28:59;5.40;;;2.55;;
78858;SDS011;68210;52.032;4.634;2024-02-16T05:31:03;4.25;;;2.45;;
78858;SDS011;68210;52.032;4.634;2024-02-16T05:33:21;5.40;;;2.67;;
78858;SDS011;68210;52.032;4.634;2024-02-16T05:35:21;6.65;;;2.47;;
78858;SDS011;68210;52.032;4.634;2024-02-16T05:37:23;4.63;;;2.75;;
78858;SDS011;68210;52.032;4.634;2024-02-16T05:39:25;4.28;;;2.58;;
78858;SDS011;68210;52.032;4.634;2024-02-16T05:41:26;6.15;;;2.88;;
78858;SDS011;68210;52.032;4.634;2024-02-16T05:43:27;4.07;;;2.90;;
78858;SDS011;68210;52.032;4.634;2024-02-16T05:45:28;4.72;;;2.67;;
78858;SDS011;68210;52.032;4.634;2024-02-16T05:47:29;5.30;;;2.63;;
78858;SDS011;68210;52.032;4.634;2024-02-16T05:49:29;5.93;;;4.00;;
78858;SDS011;68210;52.032;4.634;2024-02-16T05:51:39;6.93;;;2.63;;
78858;SDS011;68210;52.032;4.634;2024-02-16T05:53:40;6.63;;;2.95;;
78858;SDS011;68210;52.032;4.634;2024-02-16T05:55:41;5.63;;;2.60;;
78858;SDS011;68210;52.032;4.634;2024-02-16T05:57:44;5.78;;;2.90;;
78858;SDS011;68210;52.032;4.634;2024-02-16T05:59:44;5.65;;;3.13;;
78858;SDS011;68210;52.032;4.634;2024-02-16T06:01:46;7.00;;;3.20;;
78858;SDS011;68210;52.032;4.634;2024-02-16T06:03:47;4.93;;;3.10;;
78858;SDS011;68210;52.032;4.634;2024-02-16T06:05:47;4.80;;;2.90;;
78858;SDS011;68210;52.032;4.634;2024-02-16T06:07:48;5.03;;;2.83;;
78858;SDS011;68210;52.032;4.634;2024-02-16T06:09:48;5.72;;;3.35;;
78858;SDS011;68210;52.032;4.634;2024-02-16T06:11:48;4.88;;;2.85;;
78858;SDS011;68210;52.032;4.634;2024-02-16T06:13:49;11.10;;;3.28;;
78858;SDS011;68210;52.032;4.634;2024-02-16T06:15:49;7.57;;;3.88;;
78858;SDS011;68210;52.032;4.634;2024-02-16T06:17:50;6.47;;;3.80;;
78858;SDS011;68210;52.032;4.634;2024-02-16T06:19:50;6.78;;;3.92;;
78858;SDS011;68210;52.032;4.634;2024-02-16T06:21:52;9.23;;;3.33;;
78858;SDS011;68210;52.032;4.634;2024-02-16T06:23:54;6.28;;;3.05;;
78858;SDS011;68210;52.032;4.634;2024-02-16T06:25:55;6.15;;;3.15;;
78858;SDS011;68210;52.032;4.634;2024-02-16T06:27:55;4.53;;;2.67;;
78858;SDS011;68210;52.032;4.634;2024-02-16T06:29:56;5.88;;;3.03;;
78858;SDS011;68210;52.032;4.634;2024-02-16T06:31:56;7.55;;;3.53;;
78858;SDS011;68210;52.032;4.634;2024-02-16T06:33:57;5.68;;;3.17;;
78858;SDS011;68210;52.032;4.634;2024-02-16T06:35:57;10.52;;;3.53;;
78858;SDS011;68210;52.032;4.634;2024-02-16T06:37:58;7.40;;;3.50;;
78858;SDS011;68210;52.032;4.634;2024-02-16T06:39:58;5.93;;;2.78;;
78858;SDS011;68210;52.032;4.634;2024-02-16T06:41:59;6.13;;;2.60;;
78858;SDS011;68210;52.032;4.634;2024-02-16T06:44:00;5.07;;;2.72;;
78858;SDS011;68210;52.032;4.634;2024-02-16T06:46:00;11.65;;;3.30;;
78858;SDS011;68210;52.032;4.634;2024-02-16T06:48:01;6.15;;;3.10;;
78858;SDS011;68210;52.032;4.634;2024-02-16T06:50:01;6.32;;;3.28;;
78858;SDS011;68210;52.032;4.634;2024-02-16T06:52:01;6.00;;;2.90;;
78858;SDS011;68210;52.032;4.634;2024-02-16T06:54:02;6.05;;;3.33;;
78858;SDS011;68210;52.032;4.634;2024-02-16T06:56:03;9.77;;;3.58;;
78858;SDS011;68210;52.032;4.634;2024-02-16T06:58:03;5.13;;;2.60;;
78858;SDS011;68210;52.032;4.634;2024-02-16T07:00:04;12.90;;;2.95;;
78858;SDS011;68210;52.032;4.634;2024-02-16T07:02:05;4.57;;;2.67;;
78858;SDS011;68210;52.032;4.634;2024-02-16T07:04:10;6.05;;;3.00;;
78858;SDS011;68210;52.032;4.634;2024-02-16T07:06:11;5.72;;;2.95;;
78858;SDS011;68210;52.032;4.634;2024-02-16T07:08:13;5.53;;;3.05;;
78858;SDS011;68210;52.032;4.634;2024-02-16T07:10:14;10.00;;;3.40;;
78858;SDS011;68210;52.032;4.634;2024-02-16T07:12:14;4.95;;;3.00;;
78858;SDS011;68210;52.032;4.634;2024-02-16T07:14:15;6.03;;;2.83;;
78858;SDS011;68210;52.032;4.634;2024-02-16T07:16:16;5.00;;;3.13;;
78858;SDS011;68210;52.032;4.634;2024-02-16T07:18:18;8.40;;;3.55;;
78858;SDS011;68210;52.032;4.634;2024-02-16T07:20:19;6.43;;;3.30;;
78858;SDS011;68210;52.032;4.634;2024-02-16T07:22:20;5.47;;;3.03;;
78858;SDS011;68210;52.032;4.634;2024-02-16T07:24:21;6.15;;;3.10;;
78858;SDS011;68210;52.032;4.634;2024-02-16T07:26:21;6.30;;;3.50;;
78858;SDS011;68210;52.032;4.634;2024-02-16T07:28:22;7.40;;;3.47;;
78858;SDS011;68210;52.032;4.634;2024-02-16T07:30:23;7.40;;;3.60;;
78858;SDS011;68210;52.032;4.634;2024-02-16T07:32:23;7.18;;;3.13;;
78858;SDS011;68210;52.032;4.634;2024-02-16T07:34:24;6.45;;;3.95;;
78858;SDS011;68210;52.032;4.634;2024-02-16T07:36:24;7.03;;;3.75;;
78858;SDS011;68210;52.032;4.634;2024-02-16T07:38:24;5.20;;;2.97;;
78858;SDS011;68210;52.032;4.634;2024-02-16T07:40:25;7.35;;;3.22;;
78858;SDS011;68210;52.032;4.634;2024-02-16T07:42:25;5.20;;;3.47;;
78858;SDS011;68210;52.032;4.634;2024-02-16T07:44:27;8.48;;;3.47;;
78858;SDS011;68210;52.032;4.634;2024-02-16T07:46:28;6.20;;;3.53;;
78858;SDS011;68210;52.032;4.634;2024-02-16T07:48:28;6.05;;;3.17;;
78858;SDS011;68210;52.032;4.634;2024-02-16T07:50:29;5.55;;;3.20;;
78858;SDS011;68210;52.032;4.634;2024-02-16T07:52:29;9.45;;;4.00;;
78858;SDS011;68210;52.032;4.634;2024-02-16T07:54:30;7.00;;;3.63;;
78858;SDS011;68210;52.032;4.634;2024-02-16T07:56:30;7.15;;;3.28;;
78858;SDS011;68210;52.032;4.634;2024-02-16T07:58:30;8.95;;;3.28;;
78858;SDS011;68210;52.032;4.634;2024-02-16T08:00:31;6.85;;;3.50;;
78858;SDS011;68210;52.032;4.634;2024-02-16T08:02:31;8.07;;;3.38;;
78858;SDS011;68210;52.032;4.634;2024-02-16T08:04:32;6.68;;;3.30;;
78858;SDS011;68210;52.032;4.634;2024-02-16T08:06:32;5.97;;;3.25;;
78858;SDS011;68210;52.032;4.634;2024-02-16T08:08:33;4.95;;;3.35;;
78858;SDS011;68210;52.032;4.634;2024-02-16T08:10:33;6.15;;;3.78;;
78858;SDS011;68210;52.032;4.634;2024-02-16T08:12:35;6.20;;;3.63;;
78858;SDS011;68210;52.032;4.634;2024-02-16T08:14:37;6.43;;;3.83;;
78858;SDS011;68210;52.032;4.634;2024-02-16T08:16:41;7.05;;;4.32;;
78858;SDS011;68210;52.032;4.634;2024-02-16T08:18:43;6.72;;;3.78;;
78858;SDS011;68210;52.032;4.634;2024-02-16T08:20:43;11.27;;;3.60;;
78858;SDS011;68210;52.032;4.634;2024-02-16T08:22:45;7.15;;;4.20;;
78858;SDS011;68210;52.032;4.634;2024-02-16T08:24:45;6.10;;;3.33;;
78858;SDS011;68210;52.032;4.634;2024-02-16T08:26:46;9.35;;;3.83;;
78858;SDS011;68210;52.032;4.634;2024-02-16T08:28:46;7.35;;;3.97;;
78858;SDS011;68210;52.032;4.634;2024-02-16T08:30:46;8.13;;;3.83;;
78858;SDS011;68210;52.032;4.634;2024-02-16T08:32:47;5.60;;;3.63;;
78858;SDS011;68210;52.032;4.634;2024-02-16T08:34:48;7.75;;;3.50;;
78858;SDS011;68210;52.032;4.634;2024-02-16T08:36:50;8.15;;;3.20;;
78858;SDS011;68210;52.032;4.634;2024-02-16T08:38:50;6.57;;;3.50;;
78858;SDS011;68210;52.032;4.634;2024-02-16T08:40:51;8.25;;;3.28;;
78858;SDS011;68210;52.032;4.634;2024-02-16T08:42:52;9.63;;;4.40;;
78858;SDS011;68210;52.032;4.634;2024-02-16T08:44:52;6.60;;;3.72;;
78858;SDS011;68210;52.032;4.634;2024-02-16T08:46:53;4.90;;;3.25;;
78858;SDS011;68210;52.032;4.634;2024-02-16T08:48:54;5.93;;;3.63;;
78858;SDS011;68210;52.032;4.634;2024-02-16T08:50:55;7.10;;;3.40;;
78858;SDS011;68210;52.032;4.634;2024-02-16T08:52:55;7.88;;;3.50;;
78858;SDS011;68210;52.032;4.634;2024-02-16T08:54:57;6.53;;;3.83;;
78858;SDS011;68210;52.032;4.634;2024-02-16T08:56:57;8.18;;;3.97;;
78858;SDS011;68210;52.032;4.634;2024-02-16T08:58:58;8.43;;;4.15;;
78858;SDS011;68210;52.032;4.634;2024-02-16T09:00:58;9.63;;;4.30;;
78858;SDS011;68210;52.032;4.634;2024-02-16T09:02:58;7.55;;;4.18;;
78858;SDS011;68210;52.032;4.634;2024-02-16T09:04:59;5.72;;;4.07;;
78858;SDS011;68210;52.032;4.634;2024-02-16T09:06:59;9.90;;;4.60;;
78858;SDS011;68210;52.032;4.634;2024-02-16T09:09:00;7.20;;;3.97;;
78858;SDS011;68210;52.032;4.634;2024-02-16T09:11:01;11.02;;;4.25;;
78858;SDS011;68210;52.032;4.634;2024-02-16T09:13:05;7.07;;;4.60;;
78858;SDS011;68210;52.032;4.634;2024-02-16T09:15:05;8.52;;;4.28;;
78858;SDS011;68210;52.032;4.634;2024-02-16T09:17:06;6.28;;;4.18;;
78858;SDS011;68210;52.032;4.634;2024-02-16T09:19:07;8.63;;;4.03;;
78858;SDS011;68210;52.032;4.634;2024-02-16T09:21:07;7.50;;;3.83;;
78858;SDS011;68210;52.032;4.634;2024-02-16T09:23:08;9.10;;;4.55;;
78858;SDS011;68210;52.032;4.634;2024-02-16T09:25:09;7.88;;;4.55;;
78858;SDS011;68210;52.032;4.634;2024-02-16T09:27:09;7.43;;;4.10;;
78858;SDS011;68210;52.032;4.634;2024-02-16T09:29:13;9.60;;;4.38;;
78858;SDS011;68210;52.032;4.634;2024-02-16T09:31:14;9.55;;;4.68;;
78858;SDS011;68210;52.032;4.634;2024-02-16T09:33:18;11.63;;;4.97;;
78858;SDS011;68210;52.032;4.634;2024-02-16T09:35:20;9.10;;;5.18;;
78858;SDS011;68210;52.032;4.634;2024-02-16T09:37:21;9.05;;;4.53;;
78858;SDS011;68210;52.032;4.634;2024-02-16T09:39:21;8.50;;;4.47;;
78858;SDS011;68210;52.032;4.634;2024-02-16T09:41:21;8.65;;;4.22;;
78858;SDS011;68210;52.032;4.634;2024-02-16T09:43:25;9.38;;;4.82;;
78858;SDS011;68210;52.032;4.634;2024-02-16T09:45:27;9.65;;;5.35;;
78858;SDS011;68210;52.032;4.634;2024-02-16T09:47:32;14.32;;;6.07;;
78858;SDS011;68210;52.032;4.634;2024-02-16T09:49:34;11.57;;;5.85;;
78858;SDS011;68210;52.032;4.634;2024-02-16T09:51:35;17.73;;;7.20;;
78858;SDS011;68210;52.032;4.634;2024-02-16T09:53:37;20.70;;;6.65;;
78858;SDS011;68210;52.032;4.634;2024-02-16T09:55:37;15.02;;;7.10;;
78858;SDS011;68210;52.032;4.634;2024-02-16T09:57:38;15.38;;;6.03;;
78858;SDS011;68210;52.032;4.634;2024-02-16T09:59:38;23.60;;;7.28;;
78858;SDS011;68210;52.032;4.634;2024-02-16T10:01:39;23.95;;;9.27;;
78858;SDS011;68210;52.032;4.634;2024-02-16T10:03:43;22.63;;;10.00;;
78858;SDS011;68210;52.032;4.634;2024-02-16T10:05:43;17.50;;;7.78;;
78858;SDS011;68210;52.032;4.634;2024-02-16T10:07:44;27.55;;;9.82;;
78858;SDS011;68210;52.032;4.634;2024-02-16T10:09:44;20.20;;;9.23;;
78858;SDS011;68210;52.032;4.634;2024-02-16T10:11:45;21.45;;;9.20;;
78858;SDS011;68210;52.032;4.634;2024-02-16T10:13:56;17.50;;;9.13;;
78858;SDS011;68210;52.032;4.634;2024-02-16T10:16:04;21.42;;;9.48;;
78858;SDS011;68210;52.032;4.634;2024-02-16T10:18:09;23.77;;;8.65;;
78858;SDS011;68210;52.032;4.634;2024-02-16T10:20:10;23.52;;;10.20;;
78858;SDS011;68210;52.032;4.634;2024-02-16T10:22:18;24.17;;;8.75;;
78858;SDS011;68210;52.032;4.634;2024-02-16T10:24:21;22.95;;;9.35;;
78858;SDS011;68210;52.032;4.634;2024-02-16T10:26:22;20.10;;;8.98;;
78858;SDS011;68210;52.032;4.634;2024-02-16T10:28:22;22.98;;;9.35;;
78858;SDS011;68210;52.032;4.634;2024-02-16T10:30:29;18.08;;;8.63;;
78858;SDS011;68210;52.032;4.634;2024-02-16T10:36:33;19.30;;;7.65;;
78858;SDS011;68210;52.032;4.634;2024-02-16T10:38:35;17.67;;;8.73;;
78858;SDS011;68210;52.032;4.634;2024-02-16T10:40:37;20.25;;;8.07;;
78858;SDS011;68210;52.032;4.634;2024-02-16T10:42:38;19.35;;;7.50;;
78858;SDS011;68210;52.032;4.634;2024-02-16T10:44:40;18.73;;;8.68;;
78858;SDS011;68210;52.032;4.634;2024-02-16T10:46:42;19.98;;;8.55;;
78858;SDS011;68210;52.032;4.634;2024-02-16T10:48:42;16.88;;;8.65;;
78858;SDS011;68210;52.032;4.634;2024-02-16T10:50:43;16.80;;;9.10;;
78858;SDS011;68210;52.032;4.634;2024-02-16T10:52:52;18.15;;;8.52;;
78858;SDS011;68210;52.032;4.634;2024-02-16T10:54:55;24.55;;;9.63;;
78858;SDS011;68210;52.032;4.634;2024-02-16T10:57:02;22.13;;;9.52;;
78858;SDS011;68210;52.032;4.634;2024-02-16T10:59:07;23.23;;;8.88;;
78858;SDS011;68210;52.032;4.634;2024-02-16T11:01:09;15.10;;;7.50;;
78858;SDS011;68210;52.032;4.634;2024-02-16T11:03:15;20.85;;;7.88;;
78858;SDS011;68210;52.032;4.634;2024-02-16T11:05:17;15.10;;;6.82;;
78858;SDS011;68210;52.032;4.634;2024-02-16T11:07:19;15.38;;;6.72;;
78858;SDS011;68210;52.032;4.634;2024-02-16T11:09:26;10.27;;;5.60;;
78858;SDS011;68210;52.032;4.634;2024-02-16T11:11:28;12.63;;;4.72;;
78858;SDS011;68210;52.032;4.634;2024-02-16T11:13:32;7.82;;;4.35;;
78858;SDS011;68210;52.032;4.634;2024-02-16T11:15:34;9.07;;;4.93;;
78858;SDS011;68210;52.032;4.634;2024-02-16T11:17:37;9.25;;;5.60;;
78858;SDS011;68210;52.032;4.634;2024-02-16T11:19:41;7.90;;;4.22;;
78858;SDS011;68210;52.032;4.634;2024-02-16T11:21:55;9.27;;;4.20;;
78858;SDS011;68210;52.032;4.634;2024-02-16T11:24:03;8.65;;;3.80;;
78858;SDS011;68210;52.032;4.634;2024-02-16T11:26:12;9.27;;;4.72;;
78858;SDS011;68210;52.032;4.634;2024-02-16T11:28:13;9.45;;;5.25;;
78858;SDS011;68210;52.032;4.634;2024-02-16T11:30:14;7.25;;;4.45;;
78858;SDS011;68210;52.032;4.634;2024-02-16T11:32:14;9.68;;;4.53;;
78858;SDS011;68210;52.032;4.634;2024-02-16T11:34:21;6.10;;;3.20;;
78858;SDS011;68210;52.032;4.634;2024-02-16T11:36:26;5.45;;;3.17;;
78858;SDS011;68210;52.032;4.634;2024-02-16T11:38:27;4.68;;;2.97;;
78858;SDS011;68210;52.032;4.634;2024-02-16T11:40:27;5.47;;;3.05;;
78858;SDS011;68210;52.032;4.634;2024-02-16T11:42:28;7.22;;;3.35;;
78858;SDS011;68210;52.032;4.634;2024-02-16T11:44:35;7.47;;;3.60;;
78858;SDS011;68210;52.032;4.634;2024-02-16T11:47:05;6.63;;;3.38;;
78858;SDS011;68210;52.032;4.634;2024-02-16T11:49:15;5.28;;;3.15;;
78858;SDS011;68210;52.032;4.634;2024-02-16T11:51:17;8.60;;;4.05;;
78858;SDS011;68210;52.032;4.634;2024-02-16T11:53:17;5.18;;;3.38;;
78858;SDS011;68210;52.032;4.634;2024-02-16T11:55:20;7.30;;;3.10;;
78858;SDS011;68210;52.032;4.634;2024-02-16T11:57:21;6.25;;;3.47;;
78858;SDS011;68210;52.032;4.634;2024-02-16T11:59:23;5.53;;;2.50;;
78858;SDS011;68210;52.032;4.634;2024-02-16T12:01:23;7.53;;;3.10;;
78858;SDS011;68210;52.032;4.634;2024-02-16T12:03:25;4.95;;;2.63;;
78858;SDS011;68210;52.032;4.634;2024-02-16T12:05:27;4.32;;;2.65;;
78858;SDS011;68210;52.032;4.634;2024-02-16T12:07:27;6.00;;;2.67;;
78858;SDS011;68210;52.032;4.634;2024-02-16T12:09:28;3.90;;;2.60;;
78858;SDS011;68210;52.032;4.634;2024-02-16T12:11:31;5.05;;;2.70;;
78858;SDS011;68210;52.032;4.634;2024-02-16T12:13:32;4.68;;;2.78;;